MRIT2: Lake Meredith

Data processed at Sat Dec 09 2017 23:43


All information presented herein is the property of the government of the United States of America and may be revised or deleted at any time without prior notice.
Dissemination of this information without the expressed written consent of the Public Affairs Office, Tulsa District U.S. Army Corps of Engineers is strictly prohibited.
These data are gathered electronically and, as presented, have not undergone any form of quality control. These data are not guaranteed to be valid or correct.
Go to home page.
Go to station list.

Upstream stations:

Downstream station:
Previous Day
Next Day
Current Day
    
SHEF ID:       MRIT2     Lk Meredith nr Sanford, TX
STATION TYPE:  RESERVOIR

               PRECIP ELEVATION   STORAGE    INFLOW   RELEASE
                   in        ft     ac-ft       cfs       cfs
              Ccp-Rev   Ccp-Rev   Ccp-Rev  Regi-Rev  Regi-Rev
(US/Central)
12/07 00:00      0.00   2888.96    241977         0         0
12/07 01:00      0.00   2888.96    241977         0         0
12/07 02:00      0.00   2888.96    241977         0         0
12/07 03:00      0.00   2888.96    241977         0         0
12/07 04:00      0.00   2888.95    241904         0         0
12/07 05:00      0.00   2888.95    241904         0         0
12/07 06:00      0.00   2888.96    241977         0         0
12/07 07:00      0.00   2888.96    241977         0         0
12/07 08:00      0.00   2888.96    241977         0         0
12/07 09:00      0.00   2888.96    241977         0         0
12/07 10:00      0.00   2888.93    241758         0         0
12/07 11:00      0.00   2888.91    241611         0         0
12/07 12:00      0.00   2888.88    241393         0         0
12/07 13:00      0.00   2888.91    241611         0         0
12/07 14:00      0.00   2888.91    241611         0         0
12/07 15:00      0.00   2888.91    241611         0         0
12/07 16:00      0.00   2888.90    241538         0         0
12/07 17:00      0.00   2888.91    241611         0         0
12/07 18:00      0.00   2888.90    241538         0         0
12/07 19:00      0.00   2888.91    241611       530         0
12/07 20:00      0.00   2888.89    241465       648         0
12/07 21:00      0.00   2888.95    241904       648         0
12/07 22:00      0.00   2888.96    241977       648         0
12/07 23:00      0.00   2888.97    242050       648         0